sensor_id;sensor_type;location;lat;lon;timestamp;pressure;altitude;pressure_sealevel;temperature;humidity
21824;BME280;11074;48.596;9.238;2023-06-04T00:02:25;98176.72;;;19.34;59.04
21824;BME280;11074;48.596;9.238;2023-06-04T00:04:51;98176.22;;;19.32;58.71
21824;BME280;11074;48.596;9.238;2023-06-04T00:07:17;98179.84;;;19.28;57.33
21824;BME280;11074;48.596;9.238;2023-06-04T00:09:42;98181.28;;;19.25;57.97
21824;BME280;11074;48.596;9.238;2023-06-04T00:12:09;98165.44;;;19.19;58.41
21824;BME280;11074;48.596;9.238;2023-06-04T00:14:35;98171.25;;;19.26;58.07
21824;BME280;11074;48.596;9.238;2023-06-04T00:17:00;98169.19;;;19.09;59.47
21824;BME280;11074;48.596;9.238;2023-06-04T00:19:26;98167.16;;;19.15;60.75
21824;BME280;11074;48.596;9.238;2023-06-04T00:21:52;98166.84;;;19.16;61.40
21824;BME280;11074;48.596;9.238;2023-06-04T00:24:17;98164.44;;;19.15;61.73
21824;BME280;11074;48.596;9.238;2023-06-04T00:26:44;98164.69;;;19.05;62.15
21824;BME280;11074;48.596;9.238;2023-06-04T00:29:10;98166.78;;;19.08;61.63
21824;BME280;11074;48.596;9.238;2023-06-04T00:31:36;98166.13;;;19.02;61.02
21824;BME280;11074;48.596;9.238;2023-06-04T00:34:04;98171.00;;;19.00;60.93
21824;BME280;11074;48.596;9.238;2023-06-04T00:36:29;98165.91;;;18.99;60.00
21824;BME280;11074;48.596;9.238;2023-06-04T00:38:55;98168.13;;;18.97;60.24
21824;BME280;11074;48.596;9.238;2023-06-04T00:41:21;98172.53;;;18.93;59.25
21824;BME280;11074;48.596;9.238;2023-06-04T00:43:46;98175.50;;;18.83;59.04
21824;BME280;11074;48.596;9.238;2023-06-04T00:46:23;98171.97;;;18.82;58.77
21824;BME280;11074;48.596;9.238;2023-06-04T00:48:51;98175.84;;;18.67;58.90
21824;BME280;11074;48.596;9.238;2023-06-04T00:51:16;98180.13;;;18.68;58.64
21824;BME280;11074;48.596;9.238;2023-06-04T00:53:42;98183.56;;;18.60;58.59
21824;BME280;11074;48.596;9.238;2023-06-04T00:56:08;98192.69;;;18.51;59.04
21824;BME280;11074;48.596;9.238;2023-06-04T00:58:38;98189.25;;;18.45;58.99
21824;BME280;11074;48.596;9.238;2023-06-04T01:01:20;98187.28;;;18.64;58.67
21824;BME280;11074;48.596;9.238;2023-06-04T01:03:54;98192.97;;;18.63;59.48
21824;BME280;11074;48.596;9.238;2023-06-04T01:06:42;98194.59;;;18.64;58.91
21824;BME280;11074;48.596;9.238;2023-06-04T01:09:10;98193.59;;;18.60;60.04
21824;BME280;11074;48.596;9.238;2023-06-04T01:11:40;98184.78;;;18.54;60.29
21824;BME280;11074;48.596;9.238;2023-06-04T01:14:08;98192.81;;;18.59;60.81
21824;BME280;11074;48.596;9.238;2023-06-04T01:16:58;98190.19;;;18.54;60.53
21824;BME280;11074;48.596;9.238;2023-06-04T01:25:34;98188.97;;;18.47;61.64
21824;BME280;11074;48.596;9.238;2023-06-04T01:28:02;98191.47;;;18.43;61.58
21824;BME280;11074;48.596;9.238;2023-06-04T01:30:33;98185.56;;;18.41;61.94
21824;BME280;11074;48.596;9.238;2023-06-04T01:33:00;98183.84;;;18.32;60.89
21824;BME280;11074;48.596;9.238;2023-06-04T01:35:28;98193.69;;;18.28;60.73
21824;BME280;11074;48.596;9.238;2023-06-04T01:37:57;98196.50;;;18.23;60.37
21824;BME280;11074;48.596;9.238;2023-06-04T01:40:23;98186.66;;;18.13;60.35
21824;BME280;11074;48.596;9.238;2023-06-04T01:42:50;98186.97;;;18.11;60.24
21824;BME280;11074;48.596;9.238;2023-06-04T01:45:16;98190.28;;;18.08;60.13
21824;BME280;11074;48.596;9.238;2023-06-04T01:47:42;98184.44;;;18.15;60.31
21824;BME280;11074;48.596;9.238;2023-06-04T01:50:08;98191.25;;;18.12;61.48
21824;BME280;11074;48.596;9.238;2023-06-04T01:52:38;98190.06;;;18.18;61.73
21824;BME280;11074;48.596;9.238;2023-06-04T01:55:10;98188.28;;;18.14;61.83
21824;BME280;11074;48.596;9.238;2023-06-04T01:57:37;98196.50;;;18.09;62.26
21824;BME280;11074;48.596;9.238;2023-06-04T02:00:06;98193.56;;;18.05;62.73
21824;BME280;11074;48.596;9.238;2023-06-04T02:02:36;98194.75;;;17.99;62.45
21824;BME280;11074;48.596;9.238;2023-06-04T02:05:07;98186.75;;;18.08;62.69
21824;BME280;11074;48.596;9.238;2023-06-04T02:07:39;98192.47;;;18.06;62.44
21824;BME280;11074;48.596;9.238;2023-06-04T02:10:10;98193.47;;;18.10;62.74
21824;BME280;11074;48.596;9.238;2023-06-04T02:12:38;98189.56;;;18.03;62.38
21824;BME280;11074;48.596;9.238;2023-06-04T02:15:05;98194.66;;;18.04;62.34
21824;BME280;11074;48.596;9.238;2023-06-04T02:17:31;98193.28;;;17.93;62.58
21824;BME280;11074;48.596;9.238;2023-06-04T02:20:03;98189.66;;;17.98;62.99
21824;BME280;11074;48.596;9.238;2023-06-04T02:22:30;98190.34;;;17.90;63.03
21824;BME280;11074;48.596;9.238;2023-06-04T02:24:55;98192.13;;;17.81;63.22
21824;BME280;11074;48.596;9.238;2023-06-04T02:27:21;98197.00;;;17.65;62.80
21824;BME280;11074;48.596;9.238;2023-06-04T02:29:47;98201.75;;;17.73;62.95
21824;BME280;11074;48.596;9.238;2023-06-04T02:32:13;98191.81;;;17.69;63.21
21824;BME280;11074;48.596;9.238;2023-06-04T02:34:38;98191.22;;;17.72;63.13
21824;BME280;11074;48.596;9.238;2023-06-04T02:37:05;98190.72;;;17.70;63.20
21824;BME280;11074;48.596;9.238;2023-06-04T02:39:31;98195.53;;;17.73;63.55
21824;BME280;11074;48.596;9.238;2023-06-04T02:41:56;98193.22;;;17.66;63.27
21824;BME280;11074;48.596;9.238;2023-06-04T02:44:22;98188.91;;;17.65;63.18
21824;BME280;11074;48.596;9.238;2023-06-04T02:46:48;98189.13;;;17.69;64.09
21824;BME280;11074;48.596;9.238;2023-06-04T02:49:13;98185.47;;;17.60;63.60
21824;BME280;11074;48.596;9.238;2023-06-04T02:51:40;98193.16;;;17.52;64.47
21824;BME280;11074;48.596;9.238;2023-06-04T02:54:06;98192.13;;;17.48;64.65
21824;BME280;11074;48.596;9.238;2023-06-04T02:56:33;98195.28;;;17.37;64.86
21824;BME280;11074;48.596;9.238;2023-06-04T02:58:59;98206.09;;;17.37;65.14
21824;BME280;11074;48.596;9.238;2023-06-04T03:01:26;98209.81;;;17.41;65.34
21824;BME280;11074;48.596;9.238;2023-06-04T03:03:54;98201.66;;;17.27;65.41
21824;BME280;11074;48.596;9.238;2023-06-04T03:06:23;98205.16;;;17.28;65.22
21824;BME280;11074;48.596;9.238;2023-06-04T03:08:50;98210.06;;;17.26;64.64
21824;BME280;11074;48.596;9.238;2023-06-04T03:11:20;98208.59;;;17.15;64.70
21824;BME280;11074;48.596;9.238;2023-06-04T03:13:47;98205.97;;;17.10;64.62
21824;BME280;11074;48.596;9.238;2023-06-04T03:16:13;98206.88;;;17.05;64.83
21824;BME280;11074;48.596;9.238;2023-06-04T03:18:42;98211.81;;;16.98;64.05
21824;BME280;11074;48.596;9.238;2023-06-04T03:21:09;98218.31;;;16.78;63.41
21824;BME280;11074;48.596;9.238;2023-06-04T03:23:37;98221.66;;;16.70;63.21
21824;BME280;11074;48.596;9.238;2023-06-04T03:26:03;98230.19;;;16.77;63.05
21824;BME280;11074;48.596;9.238;2023-06-04T03:28:30;98234.00;;;16.76;62.70
21824;BME280;11074;48.596;9.238;2023-06-04T03:30:56;98237.22;;;16.78;62.61
21824;BME280;11074;48.596;9.238;2023-06-04T03:33:22;98234.94;;;16.67;62.21
21824;BME280;11074;48.596;9.238;2023-06-04T03:35:49;98233.09;;;16.62;62.84
21824;BME280;11074;48.596;9.238;2023-06-04T03:38:15;98242.78;;;16.63;62.64
21824;BME280;11074;48.596;9.238;2023-06-04T03:40:41;98238.22;;;16.82;62.86
21824;BME280;11074;48.596;9.238;2023-06-04T03:43:07;98236.66;;;16.81;62.98
21824;BME280;11074;48.596;9.238;2023-06-04T03:45:32;98240.34;;;16.85;63.11
21824;BME280;11074;48.596;9.238;2023-06-04T03:47:58;98244.00;;;16.76;63.21
21824;BME280;11074;48.596;9.238;2023-06-04T03:50:24;98242.03;;;16.81;63.60
21824;BME280;11074;48.596;9.238;2023-06-04T03:52:50;98242.88;;;16.77;63.41
21824;BME280;11074;48.596;9.238;2023-06-04T03:55:16;98241.81;;;16.78;63.82
21824;BME280;11074;48.596;9.238;2023-06-04T03:57:42;98252.63;;;16.78;63.78
21824;BME280;11074;48.596;9.238;2023-06-04T04:00:09;98254.81;;;16.76;63.41
21824;BME280;11074;48.596;9.238;2023-06-04T04:02:40;98255.16;;;16.69;63.13
21824;BME280;11074;48.596;9.238;2023-06-04T04:05:06;98258.97;;;16.68;63.97
21824;BME280;11074;48.596;9.238;2023-06-04T04:07:32;98252.94;;;16.71;64.01
21824;BME280;11074;48.596;9.238;2023-06-04T04:09:57;98247.50;;;16.76;64.41
21824;BME280;11074;48.596;9.238;2023-06-04T04:12:23;98253.50;;;16.73;63.59
21824;BME280;11074;48.596;9.238;2023-06-04T04:14:49;98254.50;;;16.77;63.84
21824;BME280;11074;48.596;9.238;2023-06-04T04:17:15;98259.41;;;16.75;63.33
21824;BME280;11074;48.596;9.238;2023-06-04T04:19:41;98258.16;;;16.68;63.20
21824;BME280;11074;48.596;9.238;2023-06-04T04:22:07;98258.47;;;16.61;63.02
21824;BME280;11074;48.596;9.238;2023-06-04T04:24:34;98257.28;;;16.72;63.32
21824;BME280;11074;48.596;9.238;2023-06-04T04:27:02;98262.97;;;16.71;63.09
21824;BME280;11074;48.596;9.238;2023-06-04T04:29:30;98268.06;;;16.72;64.42
21824;BME280;11074;48.596;9.238;2023-06-04T04:32:01;98265.94;;;16.69;66.08
21824;BME280;11074;48.596;9.238;2023-06-04T04:34:28;98266.69;;;16.75;66.28
21824;BME280;11074;48.596;9.238;2023-06-04T04:36:54;98272.38;;;16.73;66.19
21824;BME280;11074;48.596;9.238;2023-06-04T04:39:23;98274.69;;;16.61;65.55
21824;BME280;11074;48.596;9.238;2023-06-04T04:41:50;98270.59;;;16.64;64.64
21824;BME280;11074;48.596;9.238;2023-06-04T04:44:15;98271.78;;;16.58;65.37
21824;BME280;11074;48.596;9.238;2023-06-04T04:46:41;98275.25;;;16.58;65.14
21824;BME280;11074;48.596;9.238;2023-06-04T04:49:07;98279.16;;;16.71;65.43
21824;BME280;11074;48.596;9.238;2023-06-04T04:51:33;98272.41;;;16.92;65.29
21824;BME280;11074;48.596;9.238;2023-06-04T04:53:59;98276.38;;;17.00;65.60
21824;BME280;11074;48.596;9.238;2023-06-04T04:56:28;98279.56;;;17.02;66.06
21824;BME280;11074;48.596;9.238;2023-06-04T04:58:57;98282.28;;;17.02;65.95
21824;BME280;11074;48.596;9.238;2023-06-04T05:01:22;98278.25;;;16.99;66.10
21824;BME280;11074;48.596;9.238;2023-06-04T05:03:49;98282.00;;;17.03;66.04
21824;BME280;11074;48.596;9.238;2023-06-04T05:06:15;98292.19;;;17.06;66.17
21824;BME280;11074;48.596;9.238;2023-06-04T05:08:40;98289.38;;;16.98;66.41
21824;BME280;11074;48.596;9.238;2023-06-04T05:11:07;98290.78;;;16.90;66.71
21824;BME280;11074;48.596;9.238;2023-06-04T05:13:33;98291.09;;;16.88;66.81
21824;BME280;11074;48.596;9.238;2023-06-04T05:15:59;98292.41;;;16.91;66.42
21824;BME280;11074;48.596;9.238;2023-06-04T05:18:37;98290.81;;;16.66;67.95
21824;BME280;11074;48.596;9.238;2023-06-04T05:21:07;98286.78;;;16.64;67.96
21824;BME280;11074;48.596;9.238;2023-06-04T05:23:33;98300.09;;;16.60;68.22
21824;BME280;11074;48.596;9.238;2023-06-04T05:26:03;98297.16;;;16.52;69.27
21824;BME280;11074;48.596;9.238;2023-06-04T05:28:31;98298.03;;;16.47;68.38
21824;BME280;11074;48.596;9.238;2023-06-04T05:30:59;98298.28;;;16.22;69.36
21824;BME280;11074;48.596;9.238;2023-06-04T05:33:30;98301.78;;;16.22;68.82
21824;BME280;11074;48.596;9.238;2023-06-04T05:35:56;98297.91;;;16.33;68.88
21824;BME280;11074;48.596;9.238;2023-06-04T05:38:25;98308.25;;;16.50;67.44
21824;BME280;11074;48.596;9.238;2023-06-04T05:40:54;98303.56;;;16.61;66.44
21824;BME280;11074;48.596;9.238;2023-06-04T05:43:21;98306.16;;;16.94;66.44
21824;BME280;11074;48.596;9.238;2023-06-04T05:45:47;98299.63;;;16.95;65.28
21824;BME280;11074;48.596;9.238;2023-06-04T05:48:14;98305.44;;;17.08;65.39
21824;BME280;11074;48.596;9.238;2023-06-04T05:50:39;98304.63;;;17.07;64.19
21824;BME280;11074;48.596;9.238;2023-06-04T05:53:05;98302.59;;;17.18;64.15
21824;BME280;11074;48.596;9.238;2023-06-04T05:55:31;98304.63;;;17.26;63.48
21824;BME280;11074;48.596;9.238;2023-06-04T05:57:57;98303.09;;;17.38;63.45
21824;BME280;11074;48.596;9.238;2023-06-04T06:00:23;98311.34;;;17.47;62.70
21824;BME280;11074;48.596;9.238;2023-06-04T06:02:50;98300.16;;;17.59;62.43
21824;BME280;11074;48.596;9.238;2023-06-04T06:05:19;98307.88;;;17.65;60.97
21824;BME280;11074;48.596;9.238;2023-06-04T06:07:46;98305.66;;;17.67;60.84
21824;BME280;11074;48.596;9.238;2023-06-04T06:10:12;98312.09;;;17.71;60.37
21824;BME280;11074;48.596;9.238;2023-06-04T06:12:39;98314.22;;;17.74;60.16
21824;BME280;11074;48.596;9.238;2023-06-04T06:15:06;98306.63;;;17.76;60.13
21824;BME280;11074;48.596;9.238;2023-06-04T06:17:32;98310.84;;;17.82;60.00
21824;BME280;11074;48.596;9.238;2023-06-04T06:19:58;98315.69;;;17.85;59.33
21824;BME280;11074;48.596;9.238;2023-06-04T06:22:24;98319.09;;;17.91;58.58
21824;BME280;11074;48.596;9.238;2023-06-04T06:24:51;98314.56;;;17.86;57.96
21824;BME280;11074;48.596;9.238;2023-06-04T06:27:17;98316.91;;;17.93;58.60
21824;BME280;11074;48.596;9.238;2023-06-04T06:29:44;98324.13;;;17.97;58.86
21824;BME280;11074;48.596;9.238;2023-06-04T06:34:36;98324.34;;;18.01;58.64
21824;BME280;11074;48.596;9.238;2023-06-04T06:37:06;98323.44;;;18.05;59.45
21824;BME280;11074;48.596;9.238;2023-06-04T06:39:32;98324.53;;;18.04;58.35
21824;BME280;11074;48.596;9.238;2023-06-04T06:41:58;98325.66;;;18.03;57.80
21824;BME280;11074;48.596;9.238;2023-06-04T06:44:24;98328.44;;;17.98;57.40
21824;BME280;11074;48.596;9.238;2023-06-04T06:46:50;98314.38;;;17.96;57.72
21824;BME280;11074;48.596;9.238;2023-06-04T06:49:15;98322.31;;;17.93;57.82
21824;BME280;11074;48.596;9.238;2023-06-04T06:51:41;98328.22;;;17.95;58.23
21824;BME280;11074;48.596;9.238;2023-06-04T06:54:10;98317.41;;;17.95;57.20
21824;BME280;11074;48.596;9.238;2023-06-04T06:56:36;98321.41;;;17.97;57.64
21824;BME280;11074;48.596;9.238;2023-06-04T06:59:01;98320.84;;;18.00;57.73
21824;BME280;11074;48.596;9.238;2023-06-04T07:01:27;98320.47;;;18.07;57.49
21824;BME280;11074;48.596;9.238;2023-06-04T07:03:53;98322.03;;;18.08;57.01
21824;BME280;11074;48.596;9.238;2023-06-04T07:06:19;98324.38;;;18.14;57.57
21824;BME280;11074;48.596;9.238;2023-06-04T07:08:44;98318.38;;;18.17;56.98
21824;BME280;11074;48.596;9.238;2023-06-04T07:11:10;98322.00;;;18.27;56.62
21824;BME280;11074;48.596;9.238;2023-06-04T07:13:39;98313.28;;;18.30;56.10
21824;BME280;11074;48.596;9.238;2023-06-04T07:16:05;98318.81;;;18.38;56.54
21824;BME280;11074;48.596;9.238;2023-06-04T07:18:31;98321.66;;;18.47;55.88
21824;BME280;11074;48.596;9.238;2023-06-04T07:20:57;98325.06;;;18.52;55.64
21824;BME280;11074;48.596;9.238;2023-06-04T07:23:23;98326.09;;;18.56;56.60
21824;BME280;11074;48.596;9.238;2023-06-04T07:25:49;98322.28;;;18.57;55.57
21824;BME280;11074;48.596;9.238;2023-06-04T07:28:15;98327.28;;;18.64;55.54
21824;BME280;11074;48.596;9.238;2023-06-04T07:30:41;98328.00;;;18.69;54.97
21824;BME280;11074;48.596;9.238;2023-06-04T07:33:06;98321.66;;;18.74;55.19
21824;BME280;11074;48.596;9.238;2023-06-04T07:35:32;98323.78;;;18.77;54.78
21824;BME280;11074;48.596;9.238;2023-06-04T07:37:58;98323.69;;;18.82;54.80
21824;BME280;11074;48.596;9.238;2023-06-04T07:40:23;98317.38;;;18.87;54.56
21824;BME280;11074;48.596;9.238;2023-06-04T07:42:49;98317.56;;;18.90;53.93
21824;BME280;11074;48.596;9.238;2023-06-04T07:45:15;98314.13;;;18.98;53.96
21824;BME280;11074;48.596;9.238;2023-06-04T07:47:43;98305.91;;;19.03;54.41
21824;BME280;11074;48.596;9.238;2023-06-04T07:50:09;98306.59;;;19.09;54.26
21824;BME280;11074;48.596;9.238;2023-06-04T07:52:35;98305.06;;;19.16;53.98
21824;BME280;11074;48.596;9.238;2023-06-04T07:55:01;98302.78;;;19.23;53.66
21824;BME280;11074;48.596;9.238;2023-06-04T07:57:29;98302.34;;;19.30;54.10
21824;BME280;11074;48.596;9.238;2023-06-04T07:59:54;98296.50;;;19.36;53.36
21824;BME280;11074;48.596;9.238;2023-06-04T08:02:22;98292.91;;;19.41;53.16
21824;BME280;11074;48.596;9.238;2023-06-04T08:04:48;98296.50;;;19.50;54.21
21824;BME280;11074;48.596;9.238;2023-06-04T08:07:13;98293.34;;;19.57;53.03
21824;BME280;11074;48.596;9.238;2023-06-04T08:09:39;98289.75;;;19.61;53.12
21824;BME280;11074;48.596;9.238;2023-06-04T08:12:05;98289.31;;;19.68;53.19
21824;BME280;11074;48.596;9.238;2023-06-04T08:14:30;98291.28;;;19.76;52.65
21824;BME280;11074;48.596;9.238;2023-06-04T08:16:57;98281.59;;;19.83;52.72
21824;BME280;11074;48.596;9.238;2023-06-04T08:19:23;98282.59;;;19.87;52.17
21824;BME280;11074;48.596;9.238;2023-06-04T08:21:49;98286.00;;;20.02;52.36
21824;BME280;11074;48.596;9.238;2023-06-04T08:24:15;98294.03;;;20.07;52.00
21824;BME280;11074;48.596;9.238;2023-06-04T08:26:41;98294.22;;;20.10;52.38
21824;BME280;11074;48.596;9.238;2023-06-04T08:29:07;98297.13;;;20.14;50.85
21824;BME280;11074;48.596;9.238;2023-06-04T08:31:33;98292.84;;;20.21;51.41
21824;BME280;11074;48.596;9.238;2023-06-04T08:33:59;98291.94;;;20.26;53.00
21824;BME280;11074;48.596;9.238;2023-06-04T08:36:26;98286.50;;;20.26;51.40
21824;BME280;11074;48.596;9.238;2023-06-04T08:38:53;98280.03;;;20.35;52.39
21824;BME280;11074;48.596;9.238;2023-06-04T08:41:34;98287.88;;;20.45;51.42
21824;BME280;11074;48.596;9.238;2023-06-04T08:44:05;98284.59;;;20.57;50.80
21824;BME280;11074;48.596;9.238;2023-06-04T08:46:32;98284.59;;;20.57;50.58
21824;BME280;11074;48.596;9.238;2023-06-04T08:49:00;98282.50;;;20.63;49.89
21824;BME280;11074;48.596;9.238;2023-06-04T08:51:30;98283.03;;;20.65;49.07
21824;BME280;11074;48.596;9.238;2023-06-04T08:53:58;98280.31;;;20.73;49.59
21824;BME280;11074;48.596;9.238;2023-06-04T08:56:24;98280.47;;;20.77;49.37
21824;BME280;11074;48.596;9.238;2023-06-04T08:58:52;98287.38;;;20.83;51.35
21824;BME280;11074;48.596;9.238;2023-06-04T09:01:20;98284.84;;;20.86;49.49
21824;BME280;11074;48.596;9.238;2023-06-04T09:03:46;98289.63;;;20.89;50.18
21824;BME280;11074;48.596;9.238;2023-06-04T09:06:12;98288.38;;;20.95;49.27
21824;BME280;11074;48.596;9.238;2023-06-04T09:08:41;98284.06;;;21.03;48.86
21824;BME280;11074;48.596;9.238;2023-06-04T09:11:11;98287.66;;;21.12;50.15
21824;BME280;11074;48.596;9.238;2023-06-04T09:13:40;98283.16;;;21.16;48.69
21824;BME280;11074;48.596;9.238;2023-06-04T09:16:08;98286.84;;;21.20;48.15
21824;BME280;11074;48.596;9.238;2023-06-04T09:18:33;98284.47;;;21.27;48.87
21824;BME280;11074;48.596;9.238;2023-06-04T09:21:05;98284.47;;;21.27;47.28
21824;BME280;11074;48.596;9.238;2023-06-04T09:23:36;98283.66;;;21.35;48.11
21824;BME280;11074;48.596;9.238;2023-06-04T09:26:11;98285.75;;;21.38;46.46
21824;BME280;11074;48.596;9.238;2023-06-04T09:28:45;98299.38;;;21.47;47.25
21824;BME280;11074;48.596;9.238;2023-06-04T09:31:16;98293.75;;;21.52;47.54
21824;BME280;11074;48.596;9.238;2023-06-04T09:33:49;98295.34;;;21.61;47.08
21824;BME280;11074;48.596;9.238;2023-06-04T09:36:16;98291.34;;;21.67;47.44
21824;BME280;11074;48.596;9.238;2023-06-04T09:38:42;98281.59;;;21.75;47.43
21824;BME280;11074;48.596;9.238;2023-06-04T09:41:18;98286.84;;;21.80;45.69
21824;BME280;11074;48.596;9.238;2023-06-04T09:43:45;98281.25;;;21.85;45.54
21824;BME280;11074;48.596;9.238;2023-06-04T09:46:17;98275.81;;;21.94;45.36
21824;BME280;11074;48.596;9.238;2023-06-04T09:48:44;98278.88;;;22.01;45.29
21824;BME280;11074;48.596;9.238;2023-06-04T09:51:15;98275.63;;;22.16;44.89
21824;BME280;11074;48.596;9.238;2023-06-04T09:53:58;98269.34;;;22.24;47.01
21824;BME280;11074;48.596;9.238;2023-06-04T09:56:25;98268.88;;;22.22;44.12
21824;BME280;11074;48.596;9.238;2023-06-04T09:58:59;98280.06;;;22.29;44.36
21824;BME280;11074;48.596;9.238;2023-06-04T10:01:29;98276.06;;;22.35;44.04
21824;BME280;11074;48.596;9.238;2023-06-04T10:04:02;98269.78;;;22.43;44.23
21824;BME280;11074;48.596;9.238;2023-06-04T10:06:34;98267.53;;;22.45;42.87
21824;BME280;11074;48.596;9.238;2023-06-04T10:09:07;98273.25;;;22.52;44.23
21824;BME280;11074;48.596;9.238;2023-06-04T10:11:40;98271.63;;;22.60;42.91
21824;BME280;11074;48.596;9.238;2023-06-04T10:14:12;98271.75;;;22.72;41.84
21824;BME280;11074;48.596;9.238;2023-06-04T10:16:42;98265.31;;;22.76;41.90
21824;BME280;11074;48.596;9.238;2023-06-04T10:19:08;98269.28;;;22.87;43.33
21824;BME280;11074;48.596;9.238;2023-06-04T10:21:35;98260.09;;;22.92;43.66
21824;BME280;11074;48.596;9.238;2023-06-04T10:24:02;98264.44;;;22.93;41.97
21824;BME280;11074;48.596;9.238;2023-06-04T10:26:27;98262.50;;;22.93;43.93
21824;BME280;11074;48.596;9.238;2023-06-04T10:28:56;98263.97;;;22.91;43.92
21824;BME280;11074;48.596;9.238;2023-06-04T10:31:22;98264.59;;;22.97;42.79
21824;BME280;11074;48.596;9.238;2023-06-04T10:33:53;98261.72;;;23.14;42.54
21824;BME280;11074;48.596;9.238;2023-06-04T10:36:22;98267.13;;;23.22;42.11
21824;BME280;11074;48.596;9.238;2023-06-04T10:38:53;98258.75;;;23.27;40.63
21824;BME280;11074;48.596;9.238;2023-06-04T10:41:21;98254.34;;;23.35;41.63
21824;BME280;11074;48.596;9.238;2023-06-04T10:43:52;98252.50;;;23.47;42.11
21824;BME280;11074;48.596;9.238;2023-06-04T10:46:19;98257.38;;;23.63;42.70
21824;BME280;11074;48.596;9.238;2023-06-04T10:48:51;98254.44;;;23.68;42.48
21824;BME280;11074;48.596;9.238;2023-06-04T10:51:32;98252.63;;;23.72;44.09
21824;BME280;11074;48.596;9.238;2023-06-04T10:54:00;98256.88;;;23.81;40.03
21824;BME280;11074;48.596;9.238;2023-06-04T10:56:34;98251.53;;;23.85;39.46
21824;BME280;11074;48.596;9.238;2023-06-04T10:59:17;98248.72;;;23.93;40.36
21824;BME280;11074;48.596;9.238;2023-06-04T11:01:44;98262.28;;;24.02;40.12
21824;BME280;11074;48.596;9.238;2023-06-04T11:06:46;98256.28;;;24.08;37.77
21824;BME280;11074;48.596;9.238;2023-06-04T11:09:14;98255.63;;;24.11;39.01
21824;BME280;11074;48.596;9.238;2023-06-04T11:11:44;98254.75;;;24.32;39.05
21824;BME280;11074;48.596;9.238;2023-06-04T11:14:11;98258.66;;;24.43;39.93
21824;BME280;11074;48.596;9.238;2023-06-04T11:16:39;98254.53;;;24.49;40.73
21824;BME280;11074;48.596;9.238;2023-06-04T11:19:04;98246.56;;;24.44;37.80
21824;BME280;11074;48.596;9.238;2023-06-04T11:21:30;98256.16;;;24.50;38.61
21824;BME280;11074;48.596;9.238;2023-06-04T11:23:59;98249.66;;;24.54;39.41
21824;BME280;11074;48.596;9.238;2023-06-04T11:26:36;98250.13;;;24.81;37.14
21824;BME280;11074;48.596;9.238;2023-06-04T11:29:07;98245.47;;;24.93;37.67
21824;BME280;11074;48.596;9.238;2023-06-04T11:31:44;98243.16;;;25.19;37.71
21824;BME280;11074;48.596;9.238;2023-06-04T11:34:21;98250.19;;;25.33;36.99
21824;BME280;11074;48.596;9.238;2023-06-04T11:36:47;98249.50;;;25.36;37.17
21824;BME280;11074;48.596;9.238;2023-06-04T11:39:15;98248.94;;;25.18;36.69
21824;BME280;11074;48.596;9.238;2023-06-04T11:41:42;98235.94;;;25.27;37.29
21824;BME280;11074;48.596;9.238;2023-06-04T11:44:08;98248.25;;;25.21;36.62
21824;BME280;11074;48.596;9.238;2023-06-04T11:46:35;98246.56;;;25.16;36.25
21824;BME280;11074;48.596;9.238;2023-06-04T11:49:02;98246.28;;;25.33;36.65
21824;BME280;11074;48.596;9.238;2023-06-04T11:51:28;98245.84;;;25.31;35.55
21824;BME280;11074;48.596;9.238;2023-06-04T11:53:55;98237.75;;;25.35;35.75
21824;BME280;11074;48.596;9.238;2023-06-04T11:56:24;98248.44;;;25.40;38.05
21824;BME280;11074;48.596;9.238;2023-06-04T11:58:53;98240.94;;;25.49;36.53
21824;BME280;11074;48.596;9.238;2023-06-04T12:01:20;98240.28;;;25.68;36.49
21824;BME280;11074;48.596;9.238;2023-06-04T12:03:46;98245.56;;;25.88;34.73
21824;BME280;11074;48.596;9.238;2023-06-04T12:06:17;98235.56;;;26.24;34.83
21824;BME280;11074;48.596;9.238;2023-06-04T12:11:40;98224.66;;;26.43;34.84
21824;BME280;11074;48.596;9.238;2023-06-04T12:14:07;98226.69;;;26.62;33.90
21824;BME280;11074;48.596;9.238;2023-06-04T12:16:34;98216.25;;;26.83;33.31
21824;BME280;11074;48.596;9.238;2023-06-04T12:19:08;98226.91;;;26.84;33.86
21824;BME280;11074;48.596;9.238;2023-06-04T12:21:34;98227.44;;;26.59;35.21
21824;BME280;11074;48.596;9.238;2023-06-04T12:24:11;98215.91;;;26.37;34.25
21824;BME280;11074;48.596;9.238;2023-06-04T12:26:38;98220.44;;;26.30;34.55
21824;BME280;11074;48.596;9.238;2023-06-04T12:29:17;98211.78;;;26.28;34.27
21824;BME280;11074;48.596;9.238;2023-06-04T12:31:46;98219.00;;;26.52;35.02
21824;BME280;11074;48.596;9.238;2023-06-04T12:34:14;98215.22;;;26.87;34.23
21824;BME280;11074;48.596;9.238;2023-06-04T12:36:40;98204.53;;;27.01;33.32
21824;BME280;11074;48.596;9.238;2023-06-04T12:39:07;98207.66;;;27.00;34.67
21824;BME280;11074;48.596;9.238;2023-06-04T12:41:33;98224.50;;;26.52;32.94
21824;BME280;11074;48.596;9.238;2023-06-04T12:44:00;98218.59;;;26.34;33.57
21824;BME280;11074;48.596;9.238;2023-06-04T12:46:26;98216.00;;;26.57;33.01
21824;BME280;11074;48.596;9.238;2023-06-04T12:48:54;98209.63;;;26.84;33.12
21824;BME280;11074;48.596;9.238;2023-06-04T12:51:20;98207.50;;;27.12;32.63
21824;BME280;11074;48.596;9.238;2023-06-04T12:53:47;98205.03;;;27.42;31.85
21824;BME280;11074;48.596;9.238;2023-06-04T12:56:13;98203.50;;;27.63;31.89
21824;BME280;11074;48.596;9.238;2023-06-04T12:58:39;98204.94;;;27.77;30.34
21824;BME280;11074;48.596;9.238;2023-06-04T13:01:05;98199.28;;;27.89;31.47
21824;BME280;11074;48.596;9.238;2023-06-04T13:03:32;98195.75;;;28.07;31.86
21824;BME280;11074;48.596;9.238;2023-06-04T13:05:58;98196.50;;;28.08;30.47
21824;BME280;11074;48.596;9.238;2023-06-04T13:08:24;98204.09;;;27.73;31.85
21824;BME280;11074;48.596;9.238;2023-06-04T13:10:51;98200.84;;;27.48;31.58
21824;BME280;11074;48.596;9.238;2023-06-04T13:13:18;98206.06;;;27.18;30.34
21824;BME280;11074;48.596;9.238;2023-06-04T13:15:44;98210.06;;;26.86;30.51
21824;BME280;11074;48.596;9.238;2023-06-04T13:18:11;98205.88;;;26.92;30.28